createdAt,value
2023-03-13T00:01:42.950Z,8.20
2023-03-13T00:04:30.925Z,8.30
2023-03-13T00:07:18.872Z,8.20
2023-03-13T00:10:07.938Z,8.20
2023-03-13T00:12:55.949Z,8.20
2023-03-13T00:15:43.838Z,8.20
2023-03-13T00:18:31.789Z,8.20
2023-03-13T00:21:23.459Z,8.30
2023-03-13T00:24:15.040Z,8.30
2023-03-13T00:27:05.092Z,8.30
2023-03-13T00:29:53.392Z,8.30
2023-03-13T00:32:46.343Z,8.30
2023-03-13T00:35:34.316Z,8.30
2023-03-13T00:38:22.362Z,8.30
2023-03-13T00:41:25.055Z,8.30
2023-03-13T00:44:13.278Z,8.40
2023-03-13T00:47:01.119Z,8.30
2023-03-13T00:49:49.286Z,8.30
2023-03-13T00:52:37.085Z,8.30
2023-03-13T00:55:24.883Z,8.20
2023-03-13T00:58:12.785Z,8.30
2023-03-13T01:01:25.672Z,8.30
2023-03-13T01:04:13.510Z,8.30
2023-03-13T01:07:01.366Z,8.20
2023-03-13T01:09:49.296Z,8.20
2023-03-13T01:12:37.147Z,8.20
2023-03-13T01:15:25.239Z,8.20
2023-03-13T01:18:16.412Z,8.30
2023-03-13T01:21:05.102Z,8.30
2023-03-13T01:23:54.416Z,8.30
2023-03-13T01:26:42.222Z,8.30
2023-03-13T01:29:30.156Z,8.40
2023-03-13T01:32:20.836Z,8.40
2023-03-13T01:35:09.238Z,8.50
2023-03-13T01:37:57.015Z,8.50
2023-03-13T01:40:48.570Z,8.50
2023-03-13T01:43:37.617Z,8.60
2023-03-13T01:46:31.807Z,8.60
2023-03-13T01:49:30.053Z,8.60
2023-03-13T01:52:26.910Z,8.60
2023-03-13T01:55:17.829Z,8.70
2023-03-13T01:58:05.801Z,8.80
2023-03-13T02:00:53.851Z,8.90
2023-03-13T02:03:43.014Z,9.00
2023-03-13T02:06:33.373Z,9.10
2023-03-13T02:09:27.600Z,9.00
2023-03-13T02:12:28.032Z,9.00
2023-03-13T02:15:22.348Z,8.90
2023-03-13T02:18:11.015Z,8.90
2023-03-13T02:21:11.911Z,8.80
2023-03-13T02:24:09.506Z,8.80
2023-03-13T02:26:57.447Z,8.80
2023-03-13T02:29:45.798Z,8.80
2023-03-13T02:32:33.854Z,8.80
2023-03-13T02:35:24.568Z,8.90
2023-03-13T02:38:20.928Z,8.90
2023-03-13T02:41:10.177Z,8.90
2023-03-13T02:43:58.505Z,8.90
2023-03-13T02:46:52.570Z,8.90
2023-03-13T02:49:40.589Z,8.90
2023-03-13T02:52:32.239Z,8.90
2023-03-13T02:55:28.111Z,8.90
2023-03-13T02:58:16.124Z,8.80
2023-03-13T03:01:07.921Z,8.70
2023-03-13T03:03:56.321Z,8.70
2023-03-13T03:06:44.226Z,8.60
2023-03-13T03:09:32.329Z,8.60
2023-03-13T03:12:20.414Z,8.60
2023-03-13T03:15:09.362Z,8.60
2023-03-13T03:17:57.210Z,8.60
2023-03-13T03:20:45.162Z,8.70
2023-03-13T03:23:37.372Z,8.80
2023-03-13T03:26:25.227Z,8.80
2023-03-13T03:29:13.175Z,8.70
2023-03-13T03:32:01.297Z,8.80
2023-03-13T03:34:49.184Z,8.70
2023-03-13T03:37:37.332Z,8.70
2023-03-13T03:40:25.229Z,8.70
2023-03-13T03:43:12.997Z,8.70
2023-03-13T03:46:01.269Z,8.60
2023-03-13T03:48:49.122Z,8.60
2023-03-13T03:51:36.972Z,8.50
2023-03-13T03:54:31.076Z,8.50
2023-03-13T03:57:18.992Z,8.50
2023-03-13T04:00:08.143Z,8.40
2023-03-13T04:02:56.365Z,8.30
2023-03-13T04:05:44.631Z,8.30
2023-03-13T04:08:32.803Z,8.30
2023-03-13T04:11:21.296Z,8.30
2023-03-13T04:14:09.291Z,8.20
2023-03-13T04:16:57.133Z,8.20
2023-03-13T04:19:45.106Z,8.20
2023-03-13T04:22:33.102Z,8.30
2023-03-13T04:25:21.430Z,8.30
2023-03-13T04:28:09.466Z,8.30
2023-03-13T04:30:58.325Z,8.30
2023-03-13T04:33:46.580Z,8.30
2023-03-13T04:36:34.701Z,8.30
2023-03-13T04:39:28.675Z,8.40
2023-03-13T04:42:16.617Z,8.40
2023-03-13T04:45:05.048Z,8.40
2023-03-13T04:47:53.265Z,8.50
2023-03-13T04:50:41.389Z,8.50
2023-03-13T04:53:29.252Z,8.50
2023-03-13T04:56:41.644Z,8.50
2023-03-13T04:59:31.395Z,8.50
2023-03-13T05:02:19.262Z,8.50
2023-03-13T05:05:07.509Z,8.60
2023-03-13T05:07:55.450Z,8.60
2023-03-13T05:10:43.920Z,8.60
2023-03-13T05:13:32.143Z,8.60
2023-03-13T05:16:19.988Z,8.60
2023-03-13T05:19:07.948Z,8.70
2023-03-13T05:21:55.939Z,8.70
2023-03-13T05:24:43.841Z,8.70
2023-03-13T05:27:31.690Z,8.70
2023-03-13T05:30:19.709Z,8.80
2023-03-13T05:33:07.671Z,8.80
2023-03-13T05:35:55.580Z,8.90
2023-03-13T05:38:43.700Z,9.00
2023-03-13T05:41:31.756Z,9.10
2023-03-13T05:44:19.820Z,9.20
2023-03-13T05:47:07.801Z,9.20
2023-03-13T05:49:55.722Z,9.30
2023-03-13T05:52:43.563Z,9.30
2023-03-13T05:55:31.624Z,9.30
2023-03-13T05:58:19.904Z,9.40
2023-03-13T06:01:10.672Z,9.40
2023-03-13T06:03:58.904Z,9.40
2023-03-13T06:06:49.497Z,9.50
2023-03-13T06:09:37.352Z,9.50
2023-03-13T06:12:25.340Z,9.50
2023-03-13T06:15:13.438Z,9.60
2023-03-13T06:18:01.503Z,9.60
2023-03-13T06:20:50.987Z,9.60
2023-03-13T06:23:38.836Z,9.70
2023-03-13T06:26:26.698Z,9.70
2023-03-13T06:29:14.588Z,9.70
2023-03-13T06:32:02.812Z,9.70
2023-03-13T06:34:50.789Z,9.70
2023-03-13T06:37:38.926Z,9.70
2023-03-13T06:40:26.894Z,9.80
2023-03-13T06:43:15.409Z,9.80
2023-03-13T06:46:05.469Z,9.90
2023-03-13T06:48:53.839Z,9.90
2023-03-13T06:51:41.825Z,10.00
2023-03-13T06:54:29.884Z,10.10
2023-03-13T06:57:18.203Z,10.10
2023-03-13T07:00:07.881Z,10.10
2023-03-13T07:02:55.792Z,10.20
2023-03-13T07:05:43.708Z,10.30
2023-03-13T07:08:32.891Z,10.30
2023-03-13T07:11:20.852Z,10.40
2023-03-13T07:14:16.544Z,10.50
2023-03-13T07:17:05.305Z,10.50
2023-03-13T07:19:56.820Z,10.50
2023-03-13T07:22:58.655Z,10.60
2023-03-13T07:26:05.830Z,10.70
2023-03-13T07:29:02.510Z,10.80
2023-03-13T07:31:59.517Z,10.80
2023-03-13T07:34:58.700Z,10.80
2023-03-13T07:37:52.067Z,10.80
2023-03-13T07:40:40.229Z,11.00
2023-03-13T07:43:31.609Z,11.00
2023-03-13T07:46:25.757Z,11.20
2023-03-13T07:49:13.996Z,11.50
2023-03-13T07:52:01.909Z,11.70
2023-03-13T07:54:52.451Z,11.70
2023-03-13T07:57:40.385Z,11.70
2023-03-13T08:00:28.439Z,11.80
2023-03-13T08:03:18.664Z,11.80
2023-03-13T08:06:12.315Z,11.80
2023-03-13T08:09:00.303Z,11.90
2023-03-13T08:11:51.499Z,11.90
2023-03-13T08:14:39.633Z,11.90
2023-03-13T08:17:31.358Z,11.90
2023-03-13T08:20:22.077Z,12.00
2023-03-13T08:23:10.334Z,12.00
2023-03-13T08:26:11.651Z,12.00
2023-03-13T08:29:14.384Z,12.00
2023-03-13T08:32:09.396Z,12.10
2023-03-13T08:35:02.809Z,12.30
2023-03-13T08:37:52.576Z,12.40
2023-03-13T08:40:45.876Z,12.60
2023-03-13T08:43:34.156Z,12.80
2023-03-13T08:46:28.148Z,12.80
2023-03-13T08:49:18.721Z,12.90
2023-03-13T08:52:09.817Z,12.90
2023-03-13T08:55:01.020Z,12.90
2023-03-13T08:57:53.139Z,12.90
2023-03-13T09:00:46.384Z,12.80
2023-03-13T09:03:36.532Z,12.70
2023-03-13T09:06:27.730Z,12.70
2023-03-13T09:09:25.270Z,12.80
2023-03-13T09:12:29.658Z,12.80
2023-03-13T09:15:20.529Z,12.80
2023-03-13T09:18:08.876Z,12.90
2023-03-13T09:21:05.139Z,13.00
2023-03-13T09:23:59.108Z,13.10
2023-03-13T09:27:01.269Z,13.10
2023-03-13T09:30:01.505Z,12.90
2023-03-13T09:32:49.965Z,13.00
2023-03-13T09:35:46.638Z,12.90
2023-03-13T09:38:44.351Z,12.90
2023-03-13T09:42:10.426Z,13.00
2023-03-13T09:45:15.126Z,13.10
2023-03-13T09:48:56.146Z,13.20
2023-03-13T09:51:50.315Z,13.30
2023-03-13T09:54:54.864Z,13.60
2023-03-13T09:58:10.024Z,13.50
2023-03-13T10:01:08.248Z,13.40
2023-03-13T10:04:31.542Z,13.40
2023-03-13T10:07:21.485Z,13.40
2023-03-13T10:10:18.115Z,13.30
2023-03-13T10:13:23.609Z,13.30
2023-03-13T10:16:28.787Z,13.30
2023-03-13T10:19:27.999Z,13.90
2023-03-13T10:22:20.057Z,15.30
2023-03-13T10:25:38.429Z,16.00
2023-03-13T10:28:26.990Z,15.60
2023-03-13T10:31:41.808Z,14.70
2023-03-13T10:35:03.507Z,14.50
2023-03-13T10:38:18.599Z,14.10
2023-03-13T10:41:21.292Z,14.10
2023-03-13T10:44:33.657Z,14.00
2023-03-13T10:47:21.627Z,14.00
2023-03-13T10:50:22.386Z,13.90
2023-03-13T10:53:29.138Z,13.90
2023-03-13T10:56:26.366Z,14.10
2023-03-13T10:59:26.981Z,14.10
2023-03-13T11:02:39.591Z,14.30
2023-03-13T11:05:43.228Z,14.20
2023-03-13T11:08:37.443Z,14.00
2023-03-13T11:11:31.068Z,14.00
2023-03-13T11:14:25.408Z,13.90
2023-03-13T11:17:31.620Z,13.90
2023-03-13T11:20:37.464Z,13.70
2023-03-13T11:23:44.057Z,13.50
2023-03-13T11:27:03.703Z,13.40
2023-03-13T11:30:42.775Z,13.40
2023-03-13T11:33:58.990Z,13.60
2023-03-13T11:37:04.464Z,13.80
2023-03-13T11:40:14.427Z,13.60
2023-03-13T11:43:33.269Z,13.60
2023-03-13T11:46:36.300Z,13.70
2023-03-13T11:49:40.990Z,13.80
2023-03-13T11:53:28.207Z,13.90
2023-03-13T11:56:27.915Z,14.10
2023-03-13T11:59:44.136Z,14.00
2023-03-13T12:02:55.878Z,14.00
2023-03-13T12:05:57.652Z,14.10
2023-03-13T12:08:59.034Z,14.30
2023-03-13T12:12:03.828Z,14.30
2023-03-13T12:15:38.116Z,14.10
2023-03-13T12:18:46.658Z,14.10
2023-03-13T12:21:44.121Z,14.10
2023-03-13T12:24:39.767Z,14.00
2023-03-13T12:27:46.346Z,14.00
2023-03-13T12:30:51.255Z,14.20
2023-03-13T12:34:14.368Z,14.10
2023-03-13T12:37:50.884Z,14.20
2023-03-13T12:40:53.432Z,14.10
2023-03-13T12:44:00.626Z,14.10
2023-03-13T12:47:10.998Z,14.20
2023-03-13T12:50:33.371Z,14.20
2023-03-13T12:54:03.520Z,14.20
2023-03-13T12:57:16.162Z,14.20
2023-03-13T13:00:14.622Z,14.00
2023-03-13T13:03:40.930Z,13.70
2023-03-13T13:06:53.112Z,13.80
2023-03-13T13:10:10.013Z,13.90
2023-03-13T13:13:21.885Z,13.90
2023-03-13T13:16:20.801Z,13.80
2023-03-13T13:19:41.604Z,14.00
2023-03-13T13:22:38.542Z,14.60
2023-03-13T13:25:36.927Z,14.70
2023-03-13T13:28:37.990Z,14.90
2023-03-13T13:31:54.486Z,14.80
2023-03-13T13:35:10.251Z,14.80
2023-03-13T13:38:20.037Z,14.80
2023-03-13T13:41:14.466Z,14.80
2023-03-13T13:44:31.573Z,15.00
2023-03-13T13:47:33.655Z,15.00
2023-03-13T13:50:29.146Z,15.20
2023-03-13T13:53:44.763Z,16.00
2023-03-13T13:56:43.492Z,17.30
2023-03-13T14:00:03.120Z,17.10
2023-03-13T14:02:58.604Z,16.40
2023-03-13T14:05:52.845Z,15.90
2023-03-13T14:08:42.088Z,15.50
2023-03-13T14:11:39.808Z,15.70
2023-03-13T14:14:28.140Z,16.00
2023-03-13T14:17:16.516Z,15.70
2023-03-13T14:20:09.452Z,15.70
2023-03-13T14:23:07.748Z,16.00
2023-03-13T14:25:59.929Z,16.20
2023-03-13T14:28:59.736Z,16.50
2023-03-13T14:31:59.311Z,17.10
2023-03-13T14:34:47.582Z,16.90
2023-03-13T14:37:44.971Z,16.70
2023-03-13T14:40:38.147Z,16.30
2023-03-13T14:43:41.034Z,16.10
2023-03-13T14:46:35.555Z,16.30
2023-03-13T14:49:29.898Z,16.60
2023-03-13T14:52:25.348Z,16.80
2023-03-13T14:55:25.526Z,16.60
2023-03-13T14:59:05.145Z,16.40
2023-03-13T15:02:22.649Z,16.00
2023-03-13T15:05:55.310Z,15.50
2023-03-13T15:09:09.860Z,15.20
2023-03-13T15:12:11.706Z,14.90
2023-03-13T15:15:34.975Z,14.50
2023-03-13T15:18:41.808Z,13.50
2023-03-13T15:21:40.305Z,12.40
2023-03-13T15:24:44.027Z,12.70
2023-03-13T15:31:00.738Z,12.40
2023-03-13T15:34:29.046Z,12.40
2023-03-13T15:37:27.091Z,12.90
2023-03-13T15:44:05.592Z,12.60
2023-03-13T15:47:02.434Z,12.40
2023-03-13T15:49:51.562Z,12.30
2023-03-13T15:52:40.495Z,12.50
2023-03-13T15:55:33.390Z,12.70
2023-03-13T15:58:24.919Z,12.80
2023-03-13T16:01:15.472Z,12.70
2023-03-13T16:04:04.646Z,12.70
2023-03-13T16:06:53.159Z,12.70
2023-03-13T16:09:43.170Z,12.70
2023-03-13T16:12:31.490Z,12.70
2023-03-13T16:15:19.688Z,12.60
2023-03-13T16:18:14.682Z,12.60
2023-03-13T16:21:05.409Z,12.60
2023-03-13T16:23:54.376Z,12.60
2023-03-13T16:26:44.704Z,12.60
2023-03-13T16:29:43.114Z,12.50
2023-03-13T16:32:37.665Z,12.50
2023-03-13T16:35:33.197Z,12.40
2023-03-13T16:38:22.586Z,12.40
2023-03-13T16:41:19.091Z,12.30
2023-03-13T16:44:07.238Z,12.30
2023-03-13T16:47:05.102Z,12.30
2023-03-13T16:49:56.653Z,12.30
2023-03-13T16:52:52.370Z,12.30
2023-03-13T16:55:40.413Z,12.10
2023-03-13T16:58:28.558Z,12.10
2023-03-13T17:01:17.195Z,12.10
2023-03-13T17:04:08.403Z,12.00
2023-03-13T17:06:59.475Z,12.00
2023-03-13T17:09:48.820Z,12.00
2023-03-13T17:12:37.331Z,12.00
2023-03-13T17:15:30.621Z,12.00
2023-03-13T17:18:18.801Z,11.90
2023-03-13T17:21:12.416Z,11.90
2023-03-13T17:24:01.102Z,11.90
2023-03-13T17:26:52.365Z,11.90
2023-03-13T17:29:41.121Z,11.80
2023-03-13T17:32:29.182Z,11.80
2023-03-13T17:35:20.930Z,11.80
2023-03-13T17:38:11.692Z,11.70
2023-03-13T17:41:02.630Z,11.80
2023-03-13T17:43:50.713Z,11.80
2023-03-13T17:46:43.347Z,11.80
2023-03-13T17:49:31.297Z,11.70
2023-03-13T17:52:19.188Z,11.70
2023-03-13T17:55:11.044Z,11.80
2023-03-13T17:57:59.112Z,11.90
2023-03-13T18:00:47.614Z,11.80
2023-03-13T18:03:35.383Z,11.80
2023-03-13T18:06:45.146Z,11.70
2023-03-13T18:09:33.179Z,11.70
2023-03-13T18:12:25.307Z,11.60
2023-03-13T18:15:13.641Z,11.70
2023-03-13T18:18:01.635Z,11.70
2023-03-13T18:20:49.559Z,11.70
2023-03-13T18:23:37.358Z,11.70
2023-03-13T18:26:35.173Z,11.70
2023-03-13T18:29:29.074Z,11.70
2023-03-13T18:32:19.172Z,11.60
2023-03-13T18:35:07.380Z,11.50
2023-03-13T18:37:55.210Z,11.50
2023-03-13T18:40:43.078Z,11.50
2023-03-13T18:43:30.937Z,11.50
2023-03-13T18:46:26.685Z,11.40
2023-03-13T18:49:21.390Z,11.50
2023-03-13T18:52:11.490Z,11.50
2023-03-13T18:54:59.367Z,11.60
2023-03-13T18:57:48.630Z,11.60
2023-03-13T19:00:36.953Z,11.70
2023-03-13T19:03:24.837Z,11.70
2023-03-13T19:06:27.046Z,11.70
2023-03-13T19:09:41.478Z,11.60
2023-03-13T19:12:25.058Z,11.50
2023-03-13T19:15:14.866Z,11.60
2023-03-13T19:18:03.780Z,11.60
2023-03-13T19:20:52.040Z,11.80
2023-03-13T19:23:39.882Z,12.00
2023-03-13T19:26:42.082Z,12.10
2023-03-13T19:29:30.180Z,12.20
2023-03-13T19:32:19.354Z,12.20
2023-03-13T19:35:07.850Z,12.20
2023-03-13T19:37:55.764Z,12.10
2023-03-13T19:40:43.591Z,12.00
2023-03-13T19:43:31.581Z,12.00
2023-03-13T19:46:26.657Z,12.00
2023-03-13T19:49:18.244Z,12.00
2023-03-13T19:52:06.123Z,11.90
2023-03-13T19:54:55.744Z,11.90
2023-03-13T19:57:43.682Z,11.80
2023-03-13T20:00:31.635Z,11.80
2023-03-13T20:03:19.433Z,11.80
2023-03-13T20:06:09.779Z,11.80
2023-03-13T20:09:11.877Z,11.80
2023-03-13T20:12:00.864Z,11.70
2023-03-13T20:14:49.123Z,11.70
2023-03-13T20:17:41.200Z,11.60
2023-03-13T20:20:33.043Z,11.60
2023-03-13T20:23:20.867Z,11.60
2023-03-13T20:26:11.861Z,11.50
2023-03-13T20:29:04.824Z,11.50
2023-03-13T20:31:55.284Z,11.40
2023-03-13T20:34:47.246Z,11.40
2023-03-13T20:37:37.762Z,11.30
2023-03-13T20:40:33.285Z,11.30
2023-03-13T20:46:30.044Z,11.20
2023-03-13T20:49:18.093Z,11.20
2023-03-13T20:52:06.364Z,11.10
2023-03-13T20:54:54.735Z,11.10
2023-03-13T20:57:47.721Z,11.10
2023-03-13T21:00:44.167Z,11.00
2023-03-13T21:03:35.747Z,10.90
2023-03-13T21:06:25.247Z,10.80
2023-03-13T21:09:15.834Z,10.70
2023-03-13T21:12:05.357Z,10.70
2023-03-13T21:15:06.211Z,10.70
2023-03-13T21:18:02.182Z,10.70
2023-03-13T21:21:01.286Z,10.70
2023-03-13T21:23:59.172Z,10.60
2023-03-13T21:26:47.544Z,10.60
2023-03-13T21:29:35.741Z,10.50
2023-03-13T21:32:36.415Z,10.40
2023-03-13T21:35:24.801Z,10.30
2023-03-13T21:38:12.762Z,10.20
2023-03-13T21:41:01.016Z,10.20
2023-03-13T21:43:54.383Z,10.20
2023-03-13T21:46:42.621Z,10.20
2023-03-13T21:49:34.270Z,10.20
2023-03-13T21:52:23.427Z,10.20
2023-03-13T21:55:13.317Z,10.10
2023-03-13T21:58:01.259Z,10.10
2023-03-13T22:00:49.109Z,10.00
2023-03-13T22:03:37.203Z,10.00
2023-03-13T22:06:25.325Z,10.10
2023-03-13T22:09:13.727Z,10.10
2023-03-13T22:12:02.319Z,10.10
2023-03-13T22:14:51.384Z,10.10
2023-03-13T22:17:39.356Z,10.10
2023-03-13T22:20:27.443Z,10.00
2023-03-13T22:23:18.790Z,10.00
2023-03-13T22:26:07.232Z,10.00
2023-03-13T22:28:55.612Z,10.00
2023-03-13T22:31:43.679Z,9.90
2023-03-13T22:34:32.423Z,9.90
2023-03-13T22:37:22.359Z,10.00
2023-03-13T22:40:12.600Z,10.00
2023-03-13T22:43:03.059Z,10.00
2023-03-13T22:45:53.889Z,10.10
2023-03-13T22:48:44.700Z,10.10
2023-03-13T22:51:32.586Z,10.20
2023-03-13T22:54:26.222Z,10.10
2023-03-13T22:57:14.478Z,10.20
2023-03-13T23:00:02.730Z,10.20
2023-03-13T23:02:51.116Z,10.10
2023-03-13T23:05:43.012Z,10.00
2023-03-13T23:08:31.076Z,9.90
2023-03-13T23:11:19.377Z,9.90
2023-03-13T23:14:07.377Z,9.90
2023-03-13T23:16:55.869Z,9.90
2023-03-13T23:19:44.208Z,9.90
2023-03-13T23:22:35.424Z,10.00
2023-03-13T23:25:23.359Z,10.00
2023-03-13T23:28:11.844Z,10.00
2023-03-13T23:31:00.010Z,10.00
2023-03-13T23:33:51.456Z,10.00
2023-03-13T23:36:39.820Z,10.00
2023-03-13T23:39:27.946Z,10.00
2023-03-13T23:42:18.888Z,10.00
2023-03-13T23:45:09.340Z,10.00
2023-03-13T23:47:57.387Z,10.10
2023-03-13T23:50:45.620Z,10.00
2023-03-13T23:53:44.397Z,10.00
2023-03-13T23:56:32.835Z,10.10
2023-03-13T23:59:20.660Z,10.10
